This is the latest recevied weather packets stored in our database for station/object ED3YAB-7. If no packets are shown the sender has not sent any weather packets the latest 10 day(s).
| Time | Temp. | Humidity | Pressure | Rain* | Wind** | Luminosity | Snow |
|---|---|---|---|---|---|---|---|
| 1777718893 | 21.67° C | 39% | 1027.3 hPa | - | - | - | - |
| 1777717693 | 21.11° C | 40% | 1027.5 hPa | - | - | - | - |
| 1777716493 | 21.11° C | 41% | 1027.9 hPa | - | - | - | - |
| 1777715300 | 21.11° C | 40% | 1027.9 hPa | - | - | - | - |
| 1777715293 | 21.11° C | 40% | 1027.9 hPa | - | - | - | - |
| 1777714100 | 22.22° C | 41% | 1028 hPa | - | - | - | - |
| 1777714093 | 22.22° C | 41% | 1028 hPa | - | - | - | - |
| 1777712900 | 20° C | 46% | 1028 hPa | - | - | - | - |
| 1777712893 | 20° C | 46% | 1028 hPa | - | - | - | - |
| 1777711700 | 18.33° C | 50% | 1028 hPa | - | - | - | - |
| 1777711692 | 18.33° C | 50% | 1028 hPa | - | - | - | - |
| 1777710499 | 18.89° C | 50% | 1028.1 hPa | - | - | - | - |
| 1777710492 | 18.89° C | 50% | 1028.1 hPa | - | - | - | - |
| 1777709292 | 18.33° C | 51% | 1028 hPa | - | - | - | - |
| 1777708099 | 17.78° C | 51% | 1028.1 hPa | - | - | - | - |
| 1777708092 | 17.78° C | 51% | 1028.1 hPa | - | - | - | - |
| 1777706899 | 17.78° C | 53% | 1028.1 hPa | - | - | - | - |
| 1777706892 | 17.78° C | 53% | 1028.1 hPa | - | - | - | - |
| 1777705701 | 16.67° C | 55% | 1028.2 hPa | - | - | - | - |
| 1777705694 | 16.67° C | 55% | 1028.2 hPa | - | - | - | - |
| 1777704508 | 16.67° C | 56% | 1028.1 hPa | - | - | - | - |
| 1777704493 | 16.67° C | 56% | 1028.1 hPa | - | - | - | - |
| 1777703293 | 16.67° C | 57% | 1028 hPa | - | - | - | - |
| 1777702093 | 16.67° C | 58% | 1027.8 hPa | - | - | - | - |
| 1777700893 | 16.11° C | 59% | 1027.9 hPa | - | - | - | - |
* Rain since midnight (hover to see other rain measurements)
** Current wind speed in m/s (hover to see current wind gust speed)